Ballentine, South Carolina
Current Conditions -  °F | °C
As of 1:56 PM on Thursday 18 Dec 2014 (Local Time) from KCAE Reporting Station
Scattered Clouds Scattered Clouds  
Wind Chill: 58°   Ceiling: Unl
Heat Index: 58°   Visibility: 10mi
Dew Point: 31°   Wind: 7mph
Humidity: 36%   Direction: 130°SE
Pressure: 30.09"   Gusts: NA
Location:  34.12°N, 81.24°W
Report Text: KCAE 181856Z 13006KT 10SM SCT220 14/M01 A3009 RMK AO2 SLP188 T01441006
Loading
Personal Weather Stations






























Interactive Weather Map New forecast layout! Learn more

10-Day Weather Forecast

Advertisements
Track Severe Weather on mobile